Orrington, Maine
Current Conditions -  °F | °C
As of 4:37 AM on Sunday 26 Oct 2014 (Local Time) from KBGR Reporting Station
Haze Haze  
Wind Chill: 44°   Ceiling: 200
Heat Index: 44°   Visibility: 1.7mi
Dew Point: 44°   Wind: 0mph
Humidity: 100%   Direction: NA
Pressure: 29.38"   Gusts: NA
Location:  44.73°N, 68.83°W
Report Text: KBGR 260837Z 00000KT 1 3/4SM R15/1400V2600FT BR BKN002 BKN080 07/07 A2938 RMK AO2 VIS E 4 T00670067
Loading
Personal Weather Stations






























Interactive Weather Map
Tropical Storm Tracking
New forecast layout! Learn more

10-Day Weather Forecast

Advertisements
Track Severe Weather on mobile